Time;durP1;ratioP1;P1;durP2;ratioP2;P2;SDS_P1;SDS_P2;PMS_P1;PMS_P2;Temp;Humidity;BMP_temperature;BMP_pressure;BME280_temperature;BME280_humidity;BME280_pressure;Samples;Min_cycle;Max_cycle;Signal;HPM_P1;HPM_P2
2023/09/16 00:00:08;;;;;;;4.28;1.75;;;13.70;99.90;;;;;;5057239;28;20051;-87
2023/09/16 00:02:35;;;;;;;3.90;1.90;;;13.60;99.90;;;;;;5056994;28;20040;-87
2023/09/16 00:05:01;;;;;;;4.22;2.38;;;13.60;99.90;;;;;;5044404;28;20037;-87
2023/09/16 00:07:27;;;;;;;8.13;3.70;;;13.60;99.90;;;;;;5067443;28;20047;-88
2023/09/16 00:09:56;;;;;;;6.40;3.60;;;13.50;99.90;;;;;;5073865;28;20535;-87
2023/09/16 00:12:23;;;;;;;8.10;3.95;;;13.50;99.90;;;;;;5055034;28;20036;-87
2023/09/16 00:14:48;;;;;;;6.43;3.30;;;13.50;99.90;;;;;;5044387;28;20043;-87
2023/09/16 00:17:14;;;;;;;6.20;4.00;;;13.50;99.90;;;;;;5070211;28;20120;-87
2023/09/16 00:19:39;;;;;;;3.17;1.65;;;13.40;99.90;;;;;;5053559;28;20452;-87
2023/09/16 00:22:10;;;;;;;3.65;1.40;;;13.50;99.90;;;;;;5053870;28;20400;-87
2023/09/16 00:24:36;;;;;;;3.35;1.90;;;13.40;99.90;;;;;;5046346;28;20458;-87
2023/09/16 00:27:01;;;;;;;6.35;2.90;;;13.40;99.90;;;;;;5054925;28;20071;-87
2023/09/16 00:29:27;;;;;;;5.95;2.90;;;13.40;99.90;;;;;;5072930;28;20126;-87
2023/09/16 00:31:52;;;;;;;7.30;3.50;;;13.40;99.90;;;;;;5073351;28;20131;-88
2023/09/16 00:34:18;;;;;;;7.72;4.00;;;13.30;99.90;;;;;;5046474;28;20037;-88
2023/09/16 00:36:44;;;;;;;8.00;4.68;;;13.30;99.90;;;;;;5047269;28;20033;-87
2023/09/16 00:39:09;;;;;;;7.85;4.20;;;13.30;99.90;;;;;;5073486;28;20036;-88
2023/09/16 00:41:35;;;;;;;8.88;4.20;;;13.30;99.90;;;;;;5056384;28;20045;-87
2023/09/16 00:44:01;;;;;;;3.20;1.83;;;13.30;99.90;;;;;;5066136;28;20409;-87
2023/09/16 00:46:26;;;;;;;7.38;4.22;;;13.30;99.90;;;;;;5036354;28;20565;-88
2023/09/16 00:48:52;;;;;;;7.57;4.40;;;13.20;99.90;;;;;;5036758;28;20436;-88
2023/09/16 00:51:19;;;;;;;7.72;4.90;;;13.30;99.90;;;;;;5053317;28;20037;-88
2023/09/16 00:53:45;;;;;;;8.85;5.50;;;13.20;99.90;;;;;;5054821;28;20068;-87
2023/09/16 00:56:11;;;;;;;8.55;5.43;;;13.10;99.90;;;;;;5072623;28;20044;-86
2023/09/16 00:58:37;;;;;;;9.07;5.43;;;13.10;99.90;;;;;;5053955;28;20374;-84
2023/09/16 01:01:03;;;;;;;8.23;5.65;;;13.10;99.90;;;;;;5055662;28;20044;-86
2023/09/16 01:03:28;;;;;;;8.95;5.47;;;13.00;99.90;;;;;;5055757;28;20066;-86
2023/09/16 01:05:55;;;;;;;8.32;5.60;;;13.00;99.90;;;;;;5068477;28;20036;-87
2023/09/16 01:08:22;;;;;;;9.60;5.78;;;13.00;99.90;;;;;;5072768;28;20476;-87
2023/09/16 01:10:48;;;;;;;7.50;4.88;;;13.00;99.90;;;;;;5055542;28;20068;-86
2023/09/16 01:13:14;;;;;;;8.60;5.72;;;13.00;99.90;;;;;;5055505;28;20072;-86
2023/09/16 01:15:48;;;;;;;7.53;3.92;;;13.00;99.90;;;;;;5061244;28;20469;-86
2023/09/16 01:18:46;;;;;;;6.38;3.80;;;13.00;99.90;;;;;;5044031;28;20040;-86
2023/09/16 01:21:13;;;;;;;4.93;2.67;;;13.00;99.90;;;;;;5039697;28;20083;-86
2023/09/16 01:23:38;;;;;;;5.63;2.75;;;13.00;99.90;;;;;;5041405;28;20099;-86
2023/09/16 01:26:04;;;;;;;6.28;3.47;;;13.00;99.90;;;;;;5058184;28;20048;-86
2023/09/16 01:28:31;;;;;;;6.13;3.60;;;13.00;99.90;;;;;;5066125;28;20053;-86
2023/09/16 01:30:58;;;;;;;6.43;3.35;;;13.00;99.90;;;;;;5061206;28;20136;-86
2023/09/16 01:33:38;;;;;;;6.65;3.20;;;13.00;99.90;;;;;;5058411;28;20485;-86
2023/09/16 01:36:09;;;;;;;3.22;1.90;;;13.00;99.90;;;;;;5048754;28;20049;-87
2023/09/16 01:38:37;;;;;;;3.13;1.35;;;13.00;99.90;;;;;;5048889;28;20059;-87
2023/09/16 01:41:04;;;;;;;2.00;1.27;;;12.90;99.90;;;;;;5041977;28;20044;-87
2023/09/16 01:43:31;;;;;;;3.00;1.30;;;13.00;99.90;;;;;;5040656;28;20037;-87
2023/09/16 01:45:57;;;;;;;2.22;1.50;;;12.90;99.90;;;;;;5078928;28;20041;-86
2023/09/16 01:48:22;;;;;;;3.20;1.80;;;12.90;99.90;;;;;;5074169;28;20605;-86
2023/09/16 01:50:49;;;;;;;3.28;1.70;;;12.80;99.90;;;;;;5067386;28;20044;-87
2023/09/16 01:53:14;;;;;;;2.45;1.50;;;12.80;99.90;;;;;;5047085;28;20041;-87
2023/09/16 01:55:40;;;;;;;3.83;1.98;;;12.80;99.90;;;;;;5056312;28;20028;-87
2023/09/16 01:58:08;;;;;;;4.22;1.70;;;12.80;99.90;;;;;;5062922;28;20037;-87
2023/09/16 02:00:34;;;;;;;4.32;2.28;;;12.80;99.90;;;;;;5069255;28;20043;-87
2023/09/16 02:03:00;;;;;;;3.53;1.40;;;12.80;99.90;;;;;;5063339;28;20048;-87
2023/09/16 02:05:27;;;;;;;3.55;1.60;;;12.80;99.90;;;;;;5060222;28;20045;-86
2023/09/16 02:07:52;;;;;;;4.20;2.40;;;12.80;99.90;;;;;;5066993;28;20435;-86
2023/09/16 02:10:18;;;;;;;5.18;2.70;;;12.70;99.90;;;;;;5040448;28;20049;-86
2023/09/16 02:12:43;;;;;;;4.82;2.22;;;12.70;99.90;;;;;;5071881;28;20091;-87
2023/09/16 02:15:09;;;;;;;2.08;1.38;;;12.70;99.90;;;;;;5048431;28;20094;-88
2023/09/16 02:17:38;;;;;;;1.48;1.20;;;12.70;99.90;;;;;;5051611;28;20117;-87
2023/09/16 02:20:08;;;;;;;3.72;1.80;;;12.60;99.90;;;;;;5070484;28;20050;-87
2023/09/16 02:22:34;;;;;;;3.25;2.00;;;12.70;99.90;;;;;;5048875;28;20400;-87
2023/09/16 02:24:59;;;;;;;3.65;2.00;;;12.70;99.90;;;;;;5051846;28;20041;-87
2023/09/16 02:27:25;;;;;;;5.80;2.95;;;12.60;99.90;;;;;;5070822;28;20040;-87
2023/09/16 02:29:50;;;;;;;4.97;2.83;;;12.60;99.90;;;;;;5047091;28;20049;-87
2023/09/16 02:32:16;;;;;;;7.03;3.65;;;12.50;99.90;;;;;;5071152;28;20101;-87
2023/09/16 02:34:42;;;;;;;8.05;3.85;;;12.60;99.90;;;;;;5052153;28;20507;-87
2023/09/16 02:37:07;;;;;;;7.65;3.85;;;12.60;99.90;;;;;;5040214;28;20041;-87
2023/09/16 02:39:33;;;;;;;8.57;4.20;;;12.60;99.90;;;;;;5053601;28;20467;-88
2023/09/16 02:41:58;;;;;;;7.13;4.60;;;12.50;99.90;;;;;;5055532;28;20397;-87
2023/09/16 02:44:24;;;;;;;7.60;4.80;;;12.50;99.90;;;;;;5051010;28;20032;-86
2023/09/16 02:46:49;;;;;;;9.00;4.88;;;12.60;99.90;;;;;;5051897;28;20032;-88
2023/09/16 02:49:15;;;;;;;9.98;4.57;;;12.50;99.90;;;;;;5055682;28;20091;-86
2023/09/16 02:51:40;;;;;;;7.70;5.40;;;12.50;99.90;;;;;;5074568;28;20071;-85
2023/09/16 02:54:06;;;;;;;8.85;4.93;;;12.60;99.90;;;;;;5071816;28;20040;-86
2023/09/16 02:56:32;;;;;;;8.98;4.97;;;12.60;99.90;;;;;;5039564;28;20489;-86
2023/09/16 02:58:58;;;;;;;8.23;5.05;;;12.50;99.90;;;;;;5058663;28;20072;-86
2023/09/16 03:01:23;;;;;;;7.72;4.90;;;12.50;99.90;;;;;;5051543;28;20044;-85
2023/09/16 03:03:49;;;;;;;8.55;5.65;;;12.50;99.90;;;;;;5046866;28;20036;-86
2023/09/16 03:06:14;;;;;;;8.90;5.95;;;12.50;99.90;;;;;;5071987;28;20569;-86
2023/09/16 03:08:40;;;;;;;9.18;6.00;;;12.50;99.90;;;;;;5061797;28;20051;-86
2023/09/16 03:11:06;;;;;;;10.02;6.57;;;12.50;99.90;;;;;;5056445;28;20060;-87
2023/09/16 03:13:32;;;;;;;9.40;7.07;;;12.50;99.90;;;;;;5054654;28;20455;-87
2023/09/16 03:16:22;;;;;;;6.15;3.58;;;12.50;99.90;;;;;;5067274;28;20081;-86
2023/09/16 03:18:49;;;;;;;3.50;1.92;;;12.50;99.90;;;;;;5040881;28;20045;-86
2023/09/16 03:21:16;;;;;;;4.22;2.40;;;12.50;99.90;;;;;;5063410;28;20036;-86
2023/09/16 03:23:42;;;;;;;4.38;2.58;;;12.50;99.90;;;;;;5045974;28;20045;-86
2023/09/16 03:26:09;;;;;;;5.65;3.28;;;12.40;99.90;;;;;;5072540;28;20519;-85
2023/09/16 03:28:35;;;;;;;4.32;2.47;;;12.50;99.90;;;;;;5051256;28;20059;-86
2023/09/16 03:31:00;;;;;;;4.20;2.25;;;12.50;99.90;;;;;;5055962;28;20041;-86
2023/09/16 03:33:26;;;;;;;4.47;2.28;;;12.50;99.90;;;;;;5051069;28;20502;-87
2023/09/16 03:35:51;;;;;;;6.22;3.00;;;12.50;99.90;;;;;;5074284;28;20485;-86
2023/09/16 03:38:18;;;;;;;6.85;2.83;;;12.50;99.90;;;;;;5049330;28;20436;-85
2023/09/16 03:40:43;;;;;;;4.90;2.60;;;12.50;99.90;;;;;;5073912;28;20036;-86
2023/09/16 03:43:09;;;;;;;4.80;2.60;;;12.50;99.90;;;;;;5083564;28;20047;-86
2023/09/16 03:45:35;;;;;;;6.25;3.58;;;12.50;99.90;;;;;;5060279;28;20049;-87
2023/09/16 03:48:00;;;;;;;5.93;3.00;;;12.50;99.90;;;;;;5064294;28;20040;-86
2023/09/16 03:50:27;;;;;;;7.60;3.60;;;12.50;99.90;;;;;;5057264;28;20064;-86
2023/09/16 03:52:53;;;;;;;6.90;3.97;;;12.40;99.90;;;;;;5057452;28;20047;-87
2023/09/16 03:55:18;;;;;;;7.35;4.25;;;12.40;99.90;;;;;;5073513;28;20040;-86
2023/09/16 03:57:44;;;;;;;7.90;4.30;;;12.40;99.90;;;;;;5068871;28;20043;-87
2023/09/16 04:00:10;;;;;;;4.95;2.60;;;12.40;99.90;;;;;;5049486;28;20075;-86
2023/09/16 04:02:38;;;;;;;3.20;1.80;;;12.40;99.90;;;;;;5042197;28;20095;-88
2023/09/16 04:05:04;;;;;;;4.43;2.22;;;12.40;99.90;;;;;;5046045;28;20048;-88
2023/09/16 04:07:30;;;;;;;2.88;1.55;;;12.40;99.90;;;;;;5054386;28;20047;-87
2023/09/16 04:09:55;;;;;;;3.20;1.90;;;12.50;99.90;;;;;;5051973;28;20040;-88
2023/09/16 04:12:21;;;;;;;3.35;1.75;;;12.40;99.90;;;;;;5054920;28;20037;-87
2023/09/16 04:14:47;;;;;;;4.35;1.80;;;12.40;99.90;;;;;;5058127;28;20478;-88
2023/09/16 04:17:12;;;;;;;4.30;1.85;;;12.40;99.90;;;;;;5055013;28;20085;-88
2023/09/16 04:19:38;;;;;;;3.50;1.85;;;12.40;99.90;;;;;;5063567;28;20477;-88
2023/09/16 04:22:04;;;;;;;3.80;2.15;;;12.30;99.90;;;;;;5051323;28;20083;-87
2023/09/16 04:24:29;;;;;;;7.38;4.30;;;12.30;99.90;;;;;;5052874;28;20425;-88
2023/09/16 04:26:55;;;;;;;4.15;2.50;;;12.30;99.90;;;;;;5071864;28;20408;-87
2023/09/16 04:29:20;;;;;;;7.47;4.25;;;12.30;99.90;;;;;;5055391;28;20052;-88
2023/09/16 04:31:46;;;;;;;8.15;5.00;;;12.30;99.90;;;;;;5071851;28;20485;-88
2023/09/16 04:34:12;;;;;;;11.07;6.82;;;12.20;99.90;;;;;;5048307;28;20045;-88
2023/09/16 04:36:39;;;;;;;7.60;3.72;;;12.20;99.90;;;;;;5042900;28;20032;-87
2023/09/16 04:39:04;;;;;;;9.30;6.25;;;12.20;99.90;;;;;;5055723;28;20037;-87
2023/09/16 04:41:31;;;;;;;6.60;4.05;;;12.10;99.90;;;;;;5054922;28;20063;-87
2023/09/16 04:43:57;;;;;;;8.05;5.15;;;12.20;99.90;;;;;;5053620;28;20527;-87
2023/09/16 04:46:23;;;;;;;10.00;6.82;;;12.10;99.90;;;;;;5060315;28;20036;-87
2023/09/16 04:48:48;;;;;;;7.95;4.00;;;12.10;99.90;;;;;;5064916;28;20485;-87
2023/09/16 04:51:14;;;;;;;9.25;5.90;;;12.10;99.90;;;;;;5052635;28;20040;-88
2023/09/16 04:53:40;;;;;;;9.15;6.28;;;12.10;99.90;;;;;;5068382;28;20115;-87
2023/09/16 04:56:05;;;;;;;3.60;1.80;;;12.10;99.90;;;;;;5053672;28;20151;-87
2023/09/16 04:58:31;;;;;;;3.55;1.80;;;12.00;99.90;;;;;;5049345;28;20063;-87
2023/09/16 05:01:00;;;;;;;4.30;2.30;;;12.10;99.90;;;;;;5052357;28;20398;-87
2023/09/16 05:03:26;;;;;;;4.55;2.10;;;12.10;99.90;;;;;;5056057;28;20071;-87
2023/09/16 05:05:52;;;;;;;5.25;2.90;;;12.10;99.90;;;;;;5054743;28;20087;-87
2023/09/16 05:08:19;;;;;;;4.50;2.47;;;12.10;99.90;;;;;;5052853;28;20131;-87
2023/09/16 05:10:44;;;;;;;9.18;5.10;;;12.10;99.90;;;;;;5059653;28;20037;-86
2023/09/16 05:13:10;;;;;;;7.45;4.80;;;12.00;99.90;;;;;;5065986;28;20033;-87
2023/09/16 05:15:36;;;;;;;8.80;6.18;;;12.00;99.90;;;;;;5045117;28;20124;-87
2023/09/16 05:18:01;;;;;;;1.95;1.33;;;12.00;99.90;;;;;;5039779;28;20246;-87
2023/09/16 05:20:27;;;;;;;2.05;1.20;;;12.00;99.90;;;;;;5065778;28;20527;-87
2023/09/16 05:22:52;;;;;;;1.48;1.20;;;12.00;99.90;;;;;;5037616;28;20041;-87
2023/09/16 05:25:18;;;;;;;1.75;1.35;;;12.00;99.90;;;;;;5037547;28;20047;-88
2023/09/16 05:27:44;;;;;;;4.18;1.40;;;12.00;99.90;;;;;;5053801;28;20037;-88
2023/09/16 05:30:10;;;;;;;4.90;2.78;;;12.00;99.90;;;;;;5051042;28;20041;-88
2023/09/16 05:32:37;;;;;;;6.60;3.97;;;12.00;99.90;;;;;;5046525;28;20048;-88
2023/09/16 05:35:02;;;;;;;3.92;2.00;;;12.00;99.90;;;;;;5072814;28;20127;-88
2023/09/16 05:37:28;;;;;;;4.95;2.10;;;12.00;99.90;;;;;;5055482;28;20051;-88
2023/09/16 05:39:53;;;;;;;1.75;1.35;;;12.00;99.90;;;;;;5054741;28;20037;-89
2023/09/16 05:42:19;;;;;;;2.28;1.30;;;11.90;99.90;;;;;;5057853;28;20036;-89
2023/09/16 05:44:45;;;;;;;3.85;1.58;;;12.00;99.90;;;;;;5056273;28;20040;-89
2023/09/16 05:47:10;;;;;;;3.17;1.70;;;12.00;99.90;;;;;;5046417;28;20075;-89
2023/09/16 05:49:36;;;;;;;3.35;1.95;;;12.00;99.90;;;;;;5041821;28;20041;-89
2023/09/16 05:52:02;;;;;;;3.00;1.67;;;11.90;99.90;;;;;;5066058;28;20047;-89
2023/09/16 05:54:27;;;;;;;4.40;1.83;;;11.90;99.90;;;;;;5054153;28;20062;-89
2023/09/16 05:56:53;;;;;;;2.92;1.45;;;12.00;99.90;;;;;;5060331;28;20036;-89
2023/09/16 05:59:21;;;;;;;3.30;1.70;;;11.90;99.90;;;;;;5035672;28;20033;-89
2023/09/16 06:01:47;;;;;;;5.30;3.10;;;11.90;99.90;;;;;;5057344;28;20120;-90
2023/09/16 06:04:12;;;;;;;7.43;3.60;;;11.90;99.90;;;;;;5042908;28;20136;-89
2023/09/16 06:06:38;;;;;;;6.43;3.67;;;12.00;99.90;;;;;;5036231;28;20037;-90
2023/09/16 06:09:04;;;;;;;8.20;4.85;;;11.90;99.90;;;;;;5043522;28;20485;-90
2023/09/16 06:11:30;;;;;;;8.60;5.05;;;11.90;99.90;;;;;;5039337;28;20120;-90
2023/09/16 06:13:56;;;;;;;8.73;5.85;;;11.90;99.90;;;;;;5038316;28;20614;-90
2023/09/16 06:16:22;;;;;;;6.68;4.35;;;12.00;99.90;;;;;;5055136;28;20132;-90
2023/09/16 06:18:48;;;;;;;9.20;6.78;;;11.90;99.90;;;;;;5048451;28;20060;-90
2023/09/16 06:21:17;;;;;;;14.30;7.95;;;12.00;99.90;;;;;;5064893;28;20064;-90
2023/09/16 06:23:43;;;;;;;14.82;7.85;;;12.00;99.90;;;;;;5071921;28;20036;-90
2023/09/16 06:26:10;;;;;;;6.65;4.10;;;12.10;99.90;;;;;;5055447;28;20047;-90
2023/09/16 06:28:37;;;;;;;6.72;4.15;;;12.10;99.90;;;;;;5056215;28;20061;-90
2023/09/16 06:31:02;;;;;;;7.20;3.97;;;12.20;99.90;;;;;;5057602;28;20504;-90
2023/09/16 06:33:28;;;;;;;7.35;4.45;;;12.20;99.90;;;;;;5048867;28;20036;-90
2023/09/16 06:35:54;;;;;;;7.90;5.10;;;12.20;99.90;;;;;;5056844;28;20485;-91
2023/09/16 06:38:19;;;;;;;9.35;6.20;;;12.30;99.90;;;;;;5058958;28;20086;-90
2023/09/16 06:40:45;;;;;;;11.82;6.30;;;12.30;99.90;;;;;;5076095;28;20040;-90
2023/09/16 06:43:10;;;;;;;9.30;6.38;;;12.30;99.90;;;;;;5075673;28;20044;-90
2023/09/16 06:45:36;;;;;;;11.65;7.60;;;12.30;99.90;;;;;;5057276;28;20040;-91
2023/09/16 06:48:01;;;;;;;10.95;8.20;;;12.30;99.90;;;;;;5059914;28;20055;-91
2023/09/16 06:50:27;;;;;;;11.73;7.75;;;12.40;99.90;;;;;;5055587;28;20043;-91
2023/09/16 06:52:53;;;;;;;9.88;7.22;;;12.60;99.90;;;;;;5052504;28;20029;-91
2023/09/16 06:55:18;;;;;;;9.80;7.05;;;12.50;99.90;;;;;;5039596;28;20045;-90
2023/09/16 06:57:44;;;;;;;10.45;6.43;;;12.50;99.90;;;;;;5072220;28;20048;-91
2023/09/16 07:00:10;;;;;;;10.88;7.43;;;12.60;99.90;;;;;;5049616;28;20037;-91
2023/09/16 07:02:36;;;;;;;10.68;6.88;;;12.60;99.90;;;;;;5051217;28;20040;-90
2023/09/16 07:05:02;;;;;;;12.27;7.47;;;12.70;99.90;;;;;;5059152;28;20063;-90
2023/09/16 07:07:28;;;;;;;11.90;9.85;;;12.80;99.90;;;;;;5073367;28;20086;-91
2023/09/16 07:09:57;;;;;;;14.38;10.95;;;12.90;99.90;;;;;;5075363;28;20044;-91
2023/09/16 07:12:24;;;;;;;14.63;12.60;;;12.90;99.90;;;;;;5058436;28;20133;-91
2023/09/16 07:14:50;;;;;;;16.55;13.90;;;13.00;99.90;;;;;;5057201;28;20082;-91
2023/09/16 07:17:16;;;;;;;16.70;13.23;;;13.20;99.90;;;;;;5054746;28;20025;-91
2023/09/16 07:19:42;;;;;;;15.98;13.75;;;13.20;99.90;;;;;;5052438;28;20110;-90
2023/09/16 07:22:08;;;;;;;18.77;16.10;;;13.30;99.90;;;;;;5054330;28;20033;-91
2023/09/16 07:24:34;;;;;;;17.70;14.25;;;13.40;99.90;;;;;;5048025;28;20102;-91
2023/09/16 07:26:59;;;;;;;21.50;18.40;;;13.50;99.90;;;;;;5048019;28;20028;-90
2023/09/16 07:29:26;;;;;;;21.90;18.73;;;13.90;99.90;;;;;;5051322;28;20084;-90
2023/09/16 07:31:52;;;;;;;23.95;21.00;;;14.00;99.90;;;;;;5055433;28;20071;-90
2023/09/16 07:34:19;;;;;;;23.00;19.35;;;14.20;99.90;;;;;;5074280;28;20036;-83
2023/09/16 07:36:45;;;;;;;24.48;20.60;;;14.20;99.90;;;;;;5071800;28;20032;-90
2023/09/16 07:39:11;;;;;;;20.77;16.75;;;14.30;99.90;;;;;;5067598;28;20161;-89
2023/09/16 07:41:38;;;;;;;17.67;15.77;;;14.30;99.90;;;;;;5052229;28;20037;-89
2023/09/16 07:44:03;;;;;;;18.58;16.27;;;14.50;99.90;;;;;;5053988;28;20090;-88
2023/09/16 07:46:29;;;;;;;21.77;18.33;;;14.70;99.90;;;;;;5054344;28;20405;-88
2023/09/16 07:48:54;;;;;;;18.77;16.58;;;14.80;99.90;;;;;;5056426;28;20549;-88
2023/09/16 07:51:20;;;;;;;18.92;16.42;;;14.80;99.90;;;;;;5062362;28;20041;-88
2023/09/16 07:53:46;;;;;;;22.02;18.33;;;15.00;99.90;;;;;;5040788;28;20039;-88
2023/09/16 07:56:11;;;;;;;20.67;18.50;;;15.10;99.90;;;;;;5058926;28;20059;-88
2023/09/16 07:58:37;;;;;;;22.95;18.85;;;15.20;99.90;;;;;;5055561;28;20162;-88
2023/09/16 08:01:02;;;;;;;19.73;17.17;;;15.30;99.90;;;;;;5051012;28;20044;-88
2023/09/16 08:03:28;;;;;;;21.27;18.40;;;15.40;99.90;;;;;;5053819;28;20551;-87
2023/09/16 08:05:54;;;;;;;21.42;19.10;;;15.40;99.90;;;;;;5073587;28;20032;-88
2023/09/16 08:08:19;;;;;;;20.77;18.50;;;15.50;99.90;;;;;;5053812;28;20072;-88
2023/09/16 08:10:46;;;;;;;23.77;19.35;;;15.60;99.90;;;;;;5070573;28;20036;-88
2023/09/16 08:13:12;;;;;;;19.48;17.42;;;15.80;99.90;;;;;;5064394;28;20114;-88
2023/09/16 08:15:38;;;;;;;21.13;18.80;;;15.80;99.90;;;;;;5065400;28;20489;-88
2023/09/16 08:18:04;;;;;;;20.70;17.65;;;15.90;99.90;;;;;;5054355;28;20071;-88
2023/09/16 08:20:29;;;;;;;18.13;16.17;;;16.00;99.90;;;;;;5076244;28;20072;-88
2023/09/16 08:22:56;;;;;;;18.80;15.43;;;16.10;99.90;;;;;;5062652;28;20087;-87
2023/09/16 08:25:23;;;;;;;18.70;14.35;;;16.20;99.90;;;;;;5041756;28;20124;-88
2023/09/16 08:27:48;;;;;;;18.08;14.45;;;16.40;99.90;;;;;;5053739;28;20040;-87
2023/09/16 08:30:14;;;;;;;17.45;13.77;;;16.50;99.90;;;;;;5044107;28;20118;-87
2023/09/16 08:32:40;;;;;;;15.48;12.60;;;16.50;99.90;;;;;;5053710;28;20075;-87
2023/09/16 08:35:08;;;;;;;18.27;13.77;;;16.60;99.90;;;;;;5062661;28;20036;-87
2023/09/16 08:37:35;;;;;;;17.58;13.50;;;16.70;99.90;;;;;;5044181;28;20120;-87
2023/09/16 08:40:01;;;;;;;15.73;13.00;;;16.70;99.90;;;;;;5054845;28;20040;-87
2023/09/16 08:42:42;;;;;;;14.50;11.85;;;16.70;99.90;;;;;;5055988;28;20405;-87
2023/09/16 08:45:13;;;;;;;14.27;11.63;;;16.80;99.90;;;;;;5062708;28;20072;-87
2023/09/16 08:47:50;;;;;;;14.82;11.80;;;16.80;99.90;;;;;;5050956;28;20110;-87
2023/09/16 08:50:20;;;;;;;15.20;11.52;;;16.90;99.90;;;;;;5061240;28;20090;-87
2023/09/16 08:52:51;;;;;;;15.55;11.75;;;17.00;99.90;;;;;;5068460;28;20033;-87
2023/09/16 08:55:18;;;;;;;13.33;10.27;;;17.10;99.90;;;;;;5043288;28;20111;-87
2023/09/16 08:57:52;;;;;;;13.68;10.15;;;17.20;99.90;;;;;;5053228;28;20665;-86
2023/09/16 09:00:19;;;;;;;14.35;9.50;;;17.30;99.90;;;;;;5036650;28;20040;-87
2023/09/16 09:02:45;;;;;;;11.45;8.20;;;17.40;99.90;;;;;;5069086;28;20123;-86
2023/09/16 09:05:11;;;;;;;13.55;8.50;;;17.60;99.90;;;;;;5067675;28;20508;-87
2023/09/16 09:07:40;;;;;;;14.07;9.30;;;17.80;99.90;;;;;;5066725;28;20073;-87
2023/09/16 09:10:06;;;;;;;12.80;8.52;;;17.80;99.90;;;;;;5034791;28;20504;-86
2023/09/16 09:12:38;;;;;;;10.90;8.02;;;17.90;99.90;;;;;;5053337;28;20037;-87
2023/09/16 09:15:04;;;;;;;12.40;8.13;;;18.00;99.90;;;;;;5037502;28;20040;-86
2023/09/16 09:17:38;;;;;;;10.27;7.53;;;18.20;99.90;;;;;;5055390;28;20477;-86
2023/09/16 09:20:14;;;;;;;12.13;9.68;;;18.20;99.90;;;;;;5051244;28;20037;-87
2023/09/16 09:22:40;;;;;;;11.48;7.53;;;18.30;99.90;;;;;;5041822;28;20079;-86
2023/09/16 09:25:07;;;;;;;12.45;8.48;;;18.40;99.90;;;;;;5045302;28;20436;-87
2023/09/16 09:27:32;;;;;;;9.63;6.70;;;18.50;99.90;;;;;;5054263;28;20048;-86
2023/09/16 09:29:58;;;;;;;11.57;7.65;;;18.60;99.90;;;;;;5060824;28;20048;-87
2023/09/16 09:32:29;;;;;;;11.50;7.50;;;18.70;99.90;;;;;;5049481;28;20154;-86
2023/09/16 09:34:54;;;;;;;11.70;7.13;;;18.70;99.90;;;;;;5052297;28;20243;-86
2023/09/16 09:37:20;;;;;;;9.98;6.85;;;18.90;99.90;;;;;;5067868;28;20366;-87
2023/09/16 09:39:52;;;;;;;10.55;7.65;;;18.90;99.90;;;;;;5054861;28;20499;-87
2023/09/16 09:42:21;;;;;;;11.95;6.22;;;19.00;99.90;;;;;;5050485;28;20145;-86
2023/09/16 09:44:46;;;;;;;8.90;6.13;;;19.10;99.90;;;;;;5062168;28;20036;-86
2023/09/16 09:47:15;;;;;;;10.50;7.00;;;19.20;99.90;;;;;;5054197;28;20386;-87
2023/09/16 09:49:42;;;;;;;10.32;6.38;;;19.30;99.90;;;;;;5047228;28;20036;-86
2023/09/16 09:52:09;;;;;;;11.02;7.03;;;19.50;99.90;;;;;;5044252;28;20044;-87
2023/09/16 09:54:34;;;;;;;9.65;6.38;;;19.60;99.90;;;;;;5060350;28;20064;-86
2023/09/16 09:57:04;;;;;;;9.32;6.30;;;19.60;99.90;;;;;;5051170;28;20090;-87
2023/09/16 09:59:30;;;;;;;11.32;6.72;;;19.70;99.90;;;;;;5060910;28;20036;-86
2023/09/16 10:01:56;;;;;;;10.98;6.40;;;19.70;99.90;;;;;;5050780;28;20646;-87
2023/09/16 10:04:22;;;;;;;8.43;5.45;;;19.80;99.90;;;;;;5069241;28;20062;-86
2023/09/16 10:06:48;;;;;;;8.52;4.72;;;19.90;99.90;;;;;;5056046;28;20047;-86
2023/09/16 10:09:14;;;;;;;8.20;4.65;;;20.00;99.90;;;;;;5057592;28;20127;-86
2023/09/16 10:11:41;;;;;;;8.32;4.80;;;20.00;99.90;;;;;;5061499;28;20115;-87
2023/09/16 10:14:07;;;;;;;8.57;4.43;;;20.20;99.90;;;;;;5065484;28;20040;-86
2023/09/16 10:16:33;;;;;;;7.22;4.40;;;20.20;99.90;;;;;;5075570;28;20112;-86
2023/09/16 10:18:59;;;;;;;9.90;5.43;;;20.30;99.90;;;;;;5051253;28;20035;-86
2023/09/16 10:21:25;;;;;;;9.52;4.88;;;20.30;99.90;;;;;;5067669;28;20072;-86
2023/09/16 10:23:51;;;;;;;9.40;5.40;;;20.40;99.90;;;;;;5045823;28;20437;-86
2023/09/16 10:26:16;;;;;;;8.43;5.13;;;20.40;99.90;;;;;;5057346;28;20051;-87
2023/09/16 10:28:46;;;;;;;8.88;5.45;;;20.50;99.90;;;;;;5056722;28;20041;-87
2023/09/16 10:31:12;;;;;;;8.55;4.90;;;20.60;99.90;;;;;;5056528;28;20087;-87
2023/09/16 10:33:41;;;;;;;8.48;5.28;;;20.60;99.90;;;;;;5072508;28;20064;-87
2023/09/16 10:36:08;;;;;;;9.90;5.22;;;20.70;99.90;;;;;;5057147;28;20041;-86
2023/09/16 10:38:36;;;;;;;8.90;4.80;;;20.70;99.90;;;;;;5071915;28;20036;-86
2023/09/16 10:41:05;;;;;;;8.63;4.22;;;20.70;99.90;;;;;;5038456;28;20488;-87
2023/09/16 10:43:31;;;;;;;9.05;4.10;;;20.80;99.90;;;;;;5072065;28;20541;-87
2023/09/16 10:45:57;;;;;;;7.07;4.43;;;20.80;99.90;;;;;;5047136;28;20048;-88
2023/09/16 10:48:23;;;;;;;7.00;4.00;;;20.90;99.90;;;;;;5039603;28;20493;-87
2023/09/16 10:50:55;;;;;;;6.28;3.67;;;21.00;99.90;;;;;;5037266;28;20048;-87
2023/09/16 10:53:29;;;;;;;6.70;3.75;;;21.00;99.90;;;;;;5061872;28;20036;-87
2023/09/16 10:56:05;;;;;;;7.22;3.60;;;21.10;99.90;;;;;;5043562;28;20392;-87
2023/09/16 10:58:45;;;;;;;8.10;4.00;;;21.10;99.90;;;;;;5062640;28;20064;-87
2023/09/16 11:01:18;;;;;;;8.02;3.80;;;21.10;99.90;;;;;;5056496;28;20047;-87
2023/09/16 11:04:01;;;;;;;8.57;3.75;;;21.10;99.90;;;;;;5070937;28;20044;-87
2023/09/16 11:06:27;;;;;;;7.82;3.63;;;21.10;99.90;;;;;;5054586;28;20623;-87
2023/09/16 11:08:53;;;;;;;6.05;3.65;;;21.10;99.90;;;;;;5067817;28;20127;-86
2023/09/16 11:11:20;;;;;;;6.78;3.28;;;21.10;99.90;;;;;;5046652;28;20162;-87
2023/09/16 11:13:46;;;;;;;7.03;3.47;;;21.00;99.90;;;;;;5060390;28;20033;-86
2023/09/16 11:16:12;;;;;;;6.22;3.50;;;21.10;99.90;;;;;;5066943;28;20496;-87
2023/09/16 11:18:42;;;;;;;7.95;3.53;;;21.10;99.90;;;;;;5055178;28;20036;-87
2023/09/16 11:21:08;;;;;;;6.57;3.03;;;21.20;99.90;;;;;;5069270;28;20079;-86
2023/09/16 11:23:35;;;;;;;5.90;3.20;;;21.30;99.90;;;;;;5060209;28;20032;-86
2023/09/16 11:26:02;;;;;;;7.50;3.53;;;21.20;99.90;;;;;;5058071;28;20547;-86
2023/09/16 11:28:28;;;;;;;8.15;3.53;;;21.20;99.90;;;;;;5075700;28;20049;-86
2023/09/16 11:31:01;;;;;;;7.75;3.78;;;21.10;99.90;;;;;;5055136;28;20051;-86
2023/09/16 11:33:33;;;;;;;8.25;3.75;;;21.10;99.90;;;;;;5048569;28;20067;-87
2023/09/16 11:36:08;;;;;;;7.43;3.50;;;21.10;99.90;;;;;;5051875;28;20076;-87
2023/09/16 11:38:33;;;;;;;6.15;3.45;;;21.10;99.90;;;;;;5050956;28;20052;-86
2023/09/16 11:41:09;;;;;;;8.90;3.90;;;21.10;99.90;;;;;;5054291;28;20439;-87
2023/09/16 11:43:39;;;;;;;7.45;3.80;;;21.10;99.90;;;;;;5055737;28;20041;-87
2023/09/16 11:46:08;;;;;;;6.10;3.70;;;21.10;99.90;;;;;;5042657;28;20063;-85
2023/09/16 11:48:47;;;;;;;6.72;3.30;;;21.20;99.90;;;;;;5073531;28;20040;-86
2023/09/16 11:51:13;;;;;;;7.47;3.53;;;21.30;99.90;;;;;;5041239;28;20044;-86
2023/09/16 11:53:39;;;;;;;6.43;3.35;;;21.30;99.90;;;;;;5060652;28;20033;-86
2023/09/16 11:56:04;;;;;;;6.20;3.20;;;21.30;99.90;;;;;;5062741;28;20047;-86
2023/09/16 11:58:30;;;;;;;5.97;3.35;;;21.30;99.90;;;;;;5069177;28;20468;-86
2023/09/16 12:00:56;;;;;;;5.90;3.20;;;21.40;99.90;;;;;;5061099;28;20400;-86
2023/09/16 12:03:22;;;;;;;6.63;3.35;;;21.40;99.90;;;;;;5056293;28;20550;-86
2023/09/16 12:05:49;;;;;;;5.75;3.17;;;21.40;99.90;;;;;;5055751;28;20036;-86
2023/09/16 12:08:15;;;;;;;5.35;2.72;;;21.40;99.90;;;;;;5056373;28;20044;-86
2023/09/16 12:10:41;;;;;;;7.15;3.10;;;21.40;99.90;;;;;;5056111;28;20489;-86
2023/09/16 12:13:06;;;;;;;6.50;3.45;;;21.40;99.90;;;;;;5056007;28;20067;-87
2023/09/16 12:15:32;;;;;;;7.28;3.80;;;21.40;99.90;;;;;;5070649;28;20040;-87
2023/09/16 12:17:58;;;;;;;4.95;2.95;;;21.40;99.90;;;;;;5056800;28;20095;-86
2023/09/16 12:20:24;;;;;;;7.78;4.32;;;21.40;99.90;;;;;;5056353;28;20063;-87
2023/09/16 12:22:52;;;;;;;7.22;3.80;;;21.40;99.90;;;;;;5055728;28;20072;-86
2023/09/16 12:25:17;;;;;;;6.72;2.90;;;21.40;99.90;;;;;;5072668;28;20409;-86
2023/09/16 12:27:43;;;;;;;6.10;3.10;;;21.30;99.90;;;;;;5074117;28;20041;-85
2023/09/16 12:30:09;;;;;;;6.13;3.55;;;21.30;99.90;;;;;;5072777;28;20040;-88
2023/09/16 12:32:35;;;;;;;7.45;3.40;;;21.20;99.90;;;;;;5056454;28;20527;-89
2023/09/16 12:35:08;;;;;;;7.25;3.45;;;21.20;99.90;;;;;;5051904;28;20040;-89
2023/09/16 12:37:34;;;;;;;9.98;3.72;;;21.20;99.90;;;;;;5070784;28;20101;-89
2023/09/16 12:40:00;;;;;;;12.13;3.78;;;21.10;99.90;;;;;;5056575;28;20067;-88